SBCG/CGR METAR and TAF weather

Enter ICAO airport designator
Station Type Date Time Source
SBCG METAR 2020/01/18 13:00 UTC NOAA

SBCG 181300Z 07013KT 9999 SCT019 28/23 Q1018


Station Type Date Time Source
SBCG Decoded METAR 2020/01/18 13:00 UTC NOAA

Campo Grande Aeroporto , Brazil (SBCG) 20-28S 054-40W 567M
Jan 18, 2020 - 08:00 AM EST / 2020.01.18 1300 UTC
Wind: from the ENE (070 degrees) at 15 MPH (13 KT):0
Visibility: greater than 7 mile(s):0
Sky conditions: partly cloudy
Temperature: 82 F (28 C)
Dew Point: 73 F (23 C)
Relative Humidity: 74%
Pressure (altimeter): 30.06 in. Hg (1018 hPa)
ob: SBCG 181300Z 07013KT 9999 SCT019 28/23 Q1018
cycle: 13

Station Type Date Time Source
SBCG TAF 2020/01/18 12:45 UTC NOAA

TAF TAF SBCG 180830Z 1812/1912 11012KT 9999 SCT040 TX33/1818Z TN21/1908Z
TEMPO 1818/1822 VCSH SCT040 FEW050TCU
BECMG 1822/1824 10005KT CAVOK
RMK PEL

Example: see airport list